sensor_id;sensor_type;location;lat;lon;timestamp;temperature;humidity
7002;DHT22;3541;53.230;10.518;2023-03-14T00:01:43;11.40;99.90
7002;DHT22;3541;53.230;10.518;2023-03-14T00:04:11;11.50;99.90
7002;DHT22;3541;53.230;10.518;2023-03-14T00:06:38;11.50;99.90
7002;DHT22;3541;53.230;10.518;2023-03-14T00:09:04;11.50;99.90
7002;DHT22;3541;53.230;10.518;2023-03-14T00:11:31;11.50;99.90
7002;DHT22;3541;53.230;10.518;2023-03-14T00:13:57;11.50;99.90
7002;DHT22;3541;53.230;10.518;2023-03-14T00:16:25;11.60;99.90
7002;DHT22;3541;53.230;10.518;2023-03-14T00:18:51;11.60;99.90
7002;DHT22;3541;53.230;10.518;2023-03-14T00:21:19;11.60;99.90
7002;DHT22;3541;53.230;10.518;2023-03-14T00:23:46;11.60;99.90
7002;DHT22;3541;53.230;10.518;2023-03-14T00:26:15;11.60;99.90
7002;DHT22;3541;53.230;10.518;2023-03-14T00:28:43;11.60;99.90
7002;DHT22;3541;53.230;10.518;2023-03-14T00:31:12;11.60;99.90
7002;DHT22;3541;53.230;10.518;2023-03-14T00:33:39;11.60;99.90
7002;DHT22;3541;53.230;10.518;2023-03-14T00:36:07;11.50;99.90
7002;DHT22;3541;53.230;10.518;2023-03-14T00:38:38;11.50;99.90
7002;DHT22;3541;53.230;10.518;2023-03-14T00:41:06;11.50;99.90
7002;DHT22;3541;53.230;10.518;2023-03-14T00:43:33;11.50;99.90
7002;DHT22;3541;53.230;10.518;2023-03-14T00:46:00;11.50;99.90
7002;DHT22;3541;53.230;10.518;2023-03-14T00:48:27;11.50;99.90
7002;DHT22;3541;53.230;10.518;2023-03-14T00:50:53;11.50;99.90
7002;DHT22;3541;53.230;10.518;2023-03-14T00:53:20;11.40;99.90
7002;DHT22;3541;53.230;10.518;2023-03-14T00:55:48;11.40;99.90
7002;DHT22;3541;53.230;10.518;2023-03-14T00:58:17;11.30;99.90
7002;DHT22;3541;53.230;10.518;2023-03-14T01:00:44;11.30;99.90
7002;DHT22;3541;53.230;10.518;2023-03-14T01:03:11;11.30;99.90
7002;DHT22;3541;53.230;10.518;2023-03-14T01:05:38;11.30;99.90
7002;DHT22;3541;53.230;10.518;2023-03-14T01:08:06;11.30;99.90
7002;DHT22;3541;53.230;10.518;2023-03-14T01:10:33;11.20;99.90
7002;DHT22;3541;53.230;10.518;2023-03-14T01:13:01;11.20;99.90
7002;DHT22;3541;53.230;10.518;2023-03-14T01:15:27;11.20;99.90
7002;DHT22;3541;53.230;10.518;2023-03-14T01:17:54;11.20;99.90
7002;DHT22;3541;53.230;10.518;2023-03-14T01:20:20;11.20;99.90
7002;DHT22;3541;53.230;10.518;2023-03-14T01:22:47;11.20;99.90
7002;DHT22;3541;53.230;10.518;2023-03-14T01:25:15;11.20;99.90
7002;DHT22;3541;53.230;10.518;2023-03-14T01:27:42;11.20;99.90
7002;DHT22;3541;53.230;10.518;2023-03-14T01:30:12;11.10;99.90
7002;DHT22;3541;53.230;10.518;2023-03-14T01:32:39;11.10;99.90
7002;DHT22;3541;53.230;10.518;2023-03-14T01:35:06;11.20;99.90
7002;DHT22;3541;53.230;10.518;2023-03-14T01:37:33;11.10;99.90
7002;DHT22;3541;53.230;10.518;2023-03-14T01:39:59;11.10;99.90
7002;DHT22;3541;53.230;10.518;2023-03-14T01:42:26;11.10;99.90
7002;DHT22;3541;53.230;10.518;2023-03-14T01:44:55;11.10;99.90
7002;DHT22;3541;53.230;10.518;2023-03-14T01:47:24;11.10;99.90
7002;DHT22;3541;53.230;10.518;2023-03-14T01:49:53;11.10;99.90
7002;DHT22;3541;53.230;10.518;2023-03-14T01:52:25;11.00;99.90
7002;DHT22;3541;53.230;10.518;2023-03-14T01:54:55;11.00;99.90
7002;DHT22;3541;53.230;10.518;2023-03-14T01:57:24;11.00;99.90
7002;DHT22;3541;53.230;10.518;2023-03-14T01:59:54;11.00;99.90
7002;DHT22;3541;53.230;10.518;2023-03-14T02:02:24;11.00;99.90
7002;DHT22;3541;53.230;10.518;2023-03-14T02:04:53;11.00;99.90
7002;DHT22;3541;53.230;10.518;2023-03-14T02:07:23;11.00;99.90
7002;DHT22;3541;53.230;10.518;2023-03-14T02:09:51;10.90;99.90
7002;DHT22;3541;53.230;10.518;2023-03-14T02:12:18;10.90;99.90
7002;DHT22;3541;53.230;10.518;2023-03-14T02:14:46;10.90;99.90
7002;DHT22;3541;53.230;10.518;2023-03-14T02:17:15;10.80;99.90
7002;DHT22;3541;53.230;10.518;2023-03-14T02:19:57;10.70;99.90
7002;DHT22;3541;53.230;10.518;2023-03-14T02:22:27;10.60;99.90
7002;DHT22;3541;53.230;10.518;2023-03-14T02:24:59;10.60;99.90
7002;DHT22;3541;53.230;10.518;2023-03-14T02:27:30;10.50;99.90
7002;DHT22;3541;53.230;10.518;2023-03-14T02:29:59;10.50;99.90
7002;DHT22;3541;53.230;10.518;2023-03-14T02:32:28;10.50;99.90
7002;DHT22;3541;53.230;10.518;2023-03-14T02:34:58;10.50;99.90
7002;DHT22;3541;53.230;10.518;2023-03-14T02:37:30;10.40;99.90
7002;DHT22;3541;53.230;10.518;2023-03-14T02:39:59;10.40;99.90
7002;DHT22;3541;53.230;10.518;2023-03-14T02:42:26;10.30;99.90
7002;DHT22;3541;53.230;10.518;2023-03-14T02:44:57;10.30;99.90
7002;DHT22;3541;53.230;10.518;2023-03-14T02:47:28;10.30;99.90
7002;DHT22;3541;53.230;10.518;2023-03-14T02:49:59;10.20;99.90
7002;DHT22;3541;53.230;10.518;2023-03-14T02:52:27;10.20;99.90
7002;DHT22;3541;53.230;10.518;2023-03-14T02:54:54;10.20;99.90
7002;DHT22;3541;53.230;10.518;2023-03-14T02:57:21;10.20;99.90
7002;DHT22;3541;53.230;10.518;2023-03-14T02:59:47;10.20;99.90
7002;DHT22;3541;53.230;10.518;2023-03-14T03:02:15;10.20;99.90
7002;DHT22;3541;53.230;10.518;2023-03-14T03:04:42;10.20;99.90
7002;DHT22;3541;53.230;10.518;2023-03-14T03:07:09;10.30;99.90
7002;DHT22;3541;53.230;10.518;2023-03-14T03:09:35;10.30;99.90
7002;DHT22;3541;53.230;10.518;2023-03-14T03:12:02;10.30;99.90
7002;DHT22;3541;53.230;10.518;2023-03-14T03:14:28;10.30;99.90
7002;DHT22;3541;53.230;10.518;2023-03-14T03:16:55;10.40;99.90
7002;DHT22;3541;53.230;10.518;2023-03-14T03:19:23;10.40;99.90
7002;DHT22;3541;53.230;10.518;2023-03-14T03:21:49;10.50;99.90
7002;DHT22;3541;53.230;10.518;2023-03-14T03:24:16;10.40;99.90
7002;DHT22;3541;53.230;10.518;2023-03-14T03:26:42;10.50;99.90
7002;DHT22;3541;53.230;10.518;2023-03-14T03:29:09;10.40;99.90
7002;DHT22;3541;53.230;10.518;2023-03-14T03:31:36;10.50;99.90
7002;DHT22;3541;53.230;10.518;2023-03-14T03:34:03;10.50;99.90
7002;DHT22;3541;53.230;10.518;2023-03-14T03:36:31;10.50;99.90
7002;DHT22;3541;53.230;10.518;2023-03-14T03:38:58;10.40;99.90
7002;DHT22;3541;53.230;10.518;2023-03-14T03:41:25;10.50;99.90
7002;DHT22;3541;53.230;10.518;2023-03-14T03:43:51;10.50;99.90
7002;DHT22;3541;53.230;10.518;2023-03-14T03:46:19;10.50;99.90
7002;DHT22;3541;53.230;10.518;2023-03-14T03:48:46;10.50;99.90
7002;DHT22;3541;53.230;10.518;2023-03-14T03:51:13;10.60;99.90
7002;DHT22;3541;53.230;10.518;2023-03-14T03:53:42;10.60;99.90
7002;DHT22;3541;53.230;10.518;2023-03-14T03:56:09;10.60;99.90
7002;DHT22;3541;53.230;10.518;2023-03-14T03:58:35;10.60;99.90
7002;DHT22;3541;53.230;10.518;2023-03-14T04:01:04;10.70;99.90
7002;DHT22;3541;53.230;10.518;2023-03-14T04:03:31;10.70;99.90
7002;DHT22;3541;53.230;10.518;2023-03-14T04:05:58;10.70;99.90
7002;DHT22;3541;53.230;10.518;2023-03-14T04:08:25;10.70;99.90
7002;DHT22;3541;53.230;10.518;2023-03-14T04:10:55;10.70;99.90
7002;DHT22;3541;53.230;10.518;2023-03-14T04:13:22;10.60;99.90
7002;DHT22;3541;53.230;10.518;2023-03-14T04:15:49;10.70;99.90
7002;DHT22;3541;53.230;10.518;2023-03-14T04:18:15;10.70;99.90
7002;DHT22;3541;53.230;10.518;2023-03-14T04:20:42;10.70;99.90
7002;DHT22;3541;53.230;10.518;2023-03-14T04:23:09;10.60;99.90
7002;DHT22;3541;53.230;10.518;2023-03-14T04:25:35;10.60;99.90
7002;DHT22;3541;53.230;10.518;2023-03-14T04:28:04;10.60;99.90
7002;DHT22;3541;53.230;10.518;2023-03-14T04:30:30;10.50;99.90
7002;DHT22;3541;53.230;10.518;2023-03-14T04:32:57;10.60;99.90
7002;DHT22;3541;53.230;10.518;2023-03-14T04:35:23;10.50;99.90
7002;DHT22;3541;53.230;10.518;2023-03-14T04:37:50;10.60;99.90
7002;DHT22;3541;53.230;10.518;2023-03-14T04:40:17;10.60;99.90
7002;DHT22;3541;53.230;10.518;2023-03-14T04:42:44;10.60;99.90
7002;DHT22;3541;53.230;10.518;2023-03-14T04:45:12;10.60;99.90
7002;DHT22;3541;53.230;10.518;2023-03-14T04:47:38;10.60;99.90
7002;DHT22;3541;53.230;10.518;2023-03-14T04:50:05;10.70;99.90
7002;DHT22;3541;53.230;10.518;2023-03-14T04:52:32;10.70;99.90
7002;DHT22;3541;53.230;10.518;2023-03-14T04:54:59;10.70;99.90
7002;DHT22;3541;53.230;10.518;2023-03-14T04:57:25;10.70;99.90
7002;DHT22;3541;53.230;10.518;2023-03-14T04:59:52;10.70;99.90
7002;DHT22;3541;53.230;10.518;2023-03-14T05:02:20;10.70;99.90
7002;DHT22;3541;53.230;10.518;2023-03-14T05:04:46;10.70;99.90
7002;DHT22;3541;53.230;10.518;2023-03-14T05:07:13;10.80;99.90
7002;DHT22;3541;53.230;10.518;2023-03-14T05:09:39;10.80;99.90
7002;DHT22;3541;53.230;10.518;2023-03-14T05:12:06;10.80;99.90
7002;DHT22;3541;53.230;10.518;2023-03-14T05:14:33;10.80;99.90
7002;DHT22;3541;53.230;10.518;2023-03-14T05:17:00;10.80;99.90
7002;DHT22;3541;53.230;10.518;2023-03-14T05:19:28;10.70;99.90
7002;DHT22;3541;53.230;10.518;2023-03-14T05:21:54;10.70;99.90
7002;DHT22;3541;53.230;10.518;2023-03-14T05:24:21;10.70;99.90
7002;DHT22;3541;53.230;10.518;2023-03-14T05:26:48;10.60;99.90
7002;DHT22;3541;53.230;10.518;2023-03-14T05:29:14;10.60;99.90
7002;DHT22;3541;53.230;10.518;2023-03-14T05:31:41;10.60;99.90
7002;DHT22;3541;53.230;10.518;2023-03-14T05:34:07;10.50;99.90
7002;DHT22;3541;53.230;10.518;2023-03-14T05:36:35;10.40;99.90
7002;DHT22;3541;53.230;10.518;2023-03-14T05:39:02;10.40;99.90
7002;DHT22;3541;53.230;10.518;2023-03-14T05:41:29;10.30;99.90
7002;DHT22;3541;53.230;10.518;2023-03-14T05:43:55;10.30;99.90
7002;DHT22;3541;53.230;10.518;2023-03-14T05:46:22;10.30;99.90
7002;DHT22;3541;53.230;10.518;2023-03-14T05:48:48;10.20;99.90
7002;DHT22;3541;53.230;10.518;2023-03-14T05:51:15;10.20;99.90
7002;DHT22;3541;53.230;10.518;2023-03-14T05:53:43;10.10;99.90
7002;DHT22;3541;53.230;10.518;2023-03-14T05:56:10;10.10;99.90
7002;DHT22;3541;53.230;10.518;2023-03-14T05:58:36;10.00;99.90
7002;DHT22;3541;53.230;10.518;2023-03-14T06:01:04;10.00;99.90
7002;DHT22;3541;53.230;10.518;2023-03-14T06:03:31;10.00;99.90
7002;DHT22;3541;53.230;10.518;2023-03-14T06:05:58;9.90;99.90
7002;DHT22;3541;53.230;10.518;2023-03-14T06:08:25;9.90;99.90
7002;DHT22;3541;53.230;10.518;2023-03-14T06:10:53;9.80;99.90
7002;DHT22;3541;53.230;10.518;2023-03-14T06:13:20;9.80;99.90
7002;DHT22;3541;53.230;10.518;2023-03-14T06:15:47;9.80;99.90
7002;DHT22;3541;53.230;10.518;2023-03-14T06:18:13;9.80;99.90
7002;DHT22;3541;53.230;10.518;2023-03-14T06:20:40;9.80;99.90
7002;DHT22;3541;53.230;10.518;2023-03-14T06:23:07;9.80;99.90
7002;DHT22;3541;53.230;10.518;2023-03-14T06:25:34;9.70;99.90
7002;DHT22;3541;53.230;10.518;2023-03-14T06:28:02;9.80;99.90
7002;DHT22;3541;53.230;10.518;2023-03-14T06:30:29;9.80;99.90
7002;DHT22;3541;53.230;10.518;2023-03-14T06:32:55;9.80;99.90
7002;DHT22;3541;53.230;10.518;2023-03-14T06:35:22;9.80;99.90
7002;DHT22;3541;53.230;10.518;2023-03-14T06:37:49;9.80;99.90
7002;DHT22;3541;53.230;10.518;2023-03-14T06:40:16;9.80;99.90
7002;DHT22;3541;53.230;10.518;2023-03-14T06:42:43;9.80;99.90
7002;DHT22;3541;53.230;10.518;2023-03-14T06:45:11;9.90;99.90
7002;DHT22;3541;53.230;10.518;2023-03-14T06:47:38;9.80;99.90
7002;DHT22;3541;53.230;10.518;2023-03-14T06:50:05;9.80;99.90
7002;DHT22;3541;53.230;10.518;2023-03-14T06:52:32;9.80;99.90
7002;DHT22;3541;53.230;10.518;2023-03-14T06:54:59;9.80;99.90
7002;DHT22;3541;53.230;10.518;2023-03-14T06:57:26;9.80;99.90
7002;DHT22;3541;53.230;10.518;2023-03-14T06:59:52;9.80;99.90
7002;DHT22;3541;53.230;10.518;2023-03-14T07:02:23;9.80;99.90
7002;DHT22;3541;53.230;10.518;2023-03-14T07:04:49;9.80;99.90
7002;DHT22;3541;53.230;10.518;2023-03-14T07:07:16;9.80;99.90
7002;DHT22;3541;53.230;10.518;2023-03-14T07:09:42;9.70;99.90
7002;DHT22;3541;53.230;10.518;2023-03-14T07:12:09;9.60;99.90
7002;DHT22;3541;53.230;10.518;2023-03-14T07:14:36;9.50;99.90
7002;DHT22;3541;53.230;10.518;2023-03-14T07:17:02;9.40;99.90
7002;DHT22;3541;53.230;10.518;2023-03-14T07:19:30;9.40;99.90
7002;DHT22;3541;53.230;10.518;2023-03-14T07:21:56;9.30;99.90
7002;DHT22;3541;53.230;10.518;2023-03-14T07:24:23;9.30;99.90
7002;DHT22;3541;53.230;10.518;2023-03-14T07:26:50;9.30;99.90
7002;DHT22;3541;53.230;10.518;2023-03-14T07:29:16;9.30;99.90
7002;DHT22;3541;53.230;10.518;2023-03-14T07:31:43;9.30;99.90
7002;DHT22;3541;53.230;10.518;2023-03-14T07:34:09;9.30;99.90
7002;DHT22;3541;53.230;10.518;2023-03-14T07:36:37;9.30;99.90
7002;DHT22;3541;53.230;10.518;2023-03-14T07:39:04;9.30;99.90
7002;DHT22;3541;53.230;10.518;2023-03-14T07:41:31;9.30;99.90
7002;DHT22;3541;53.230;10.518;2023-03-14T07:43:58;9.20;99.90
7002;DHT22;3541;53.230;10.518;2023-03-14T07:46:24;9.20;99.90
7002;DHT22;3541;53.230;10.518;2023-03-14T07:48:51;9.20;99.90
7002;DHT22;3541;53.230;10.518;2023-03-14T07:51:17;9.20;99.90
7002;DHT22;3541;53.230;10.518;2023-03-14T07:53:45;9.30;99.90
7002;DHT22;3541;53.230;10.518;2023-03-14T07:56:12;9.30;99.90
7002;DHT22;3541;53.230;10.518;2023-03-14T07:58:38;9.40;99.90
7002;DHT22;3541;53.230;10.518;2023-03-14T08:01:05;9.50;99.90
7002;DHT22;3541;53.230;10.518;2023-03-14T08:03:32;9.60;99.90
7002;DHT22;3541;53.230;10.518;2023-03-14T08:05:58;9.60;99.90
7002;DHT22;3541;53.230;10.518;2023-03-14T08:08:25;9.70;99.90
7002;DHT22;3541;53.230;10.518;2023-03-14T08:10:53;9.80;99.90
7002;DHT22;3541;53.230;10.518;2023-03-14T08:13:19;9.90;99.90
7002;DHT22;3541;53.230;10.518;2023-03-14T08:15:47;10.00;99.90
7002;DHT22;3541;53.230;10.518;2023-03-14T08:18:14;10.20;99.90
7002;DHT22;3541;53.230;10.518;2023-03-14T08:20:41;10.30;99.90
7002;DHT22;3541;53.230;10.518;2023-03-14T08:23:07;10.40;99.90
7002;DHT22;3541;53.230;10.518;2023-03-14T08:25:34;10.40;99.90
7002;DHT22;3541;53.230;10.518;2023-03-14T08:28:02;10.40;99.90
7002;DHT22;3541;53.230;10.518;2023-03-14T08:30:29;10.50;99.90
7002;DHT22;3541;53.230;10.518;2023-03-14T08:32:56;10.50;99.90
7002;DHT22;3541;53.230;10.518;2023-03-14T08:35:23;10.60;99.90
7002;DHT22;3541;53.230;10.518;2023-03-14T08:37:50;10.70;99.90
7002;DHT22;3541;53.230;10.518;2023-03-14T08:40:17;10.80;99.90
7002;DHT22;3541;53.230;10.518;2023-03-14T08:42:44;10.90;99.90
7002;DHT22;3541;53.230;10.518;2023-03-14T08:45:15;10.90;99.90
7002;DHT22;3541;53.230;10.518;2023-03-14T08:47:42;10.90;99.90
7002;DHT22;3541;53.230;10.518;2023-03-14T08:50:10;10.90;99.90
7002;DHT22;3541;53.230;10.518;2023-03-14T08:52:37;11.00;99.90
7002;DHT22;3541;53.230;10.518;2023-03-14T08:55:06;11.10;99.90
7002;DHT22;3541;53.230;10.518;2023-03-14T08:57:33;11.20;99.90
7002;DHT22;3541;53.230;10.518;2023-03-14T09:00:00;11.20;99.90
7002;DHT22;3541;53.230;10.518;2023-03-14T09:02:28;11.20;99.90
7002;DHT22;3541;53.230;10.518;2023-03-14T09:04:54;11.20;99.90
7002;DHT22;3541;53.230;10.518;2023-03-14T09:07:21;11.30;99.90
7002;DHT22;3541;53.230;10.518;2023-03-14T09:09:47;11.30;99.90
7002;DHT22;3541;53.230;10.518;2023-03-14T09:12:14;11.40;99.90
7002;DHT22;3541;53.230;10.518;2023-03-14T09:14:40;11.40;99.90
7002;DHT22;3541;53.230;10.518;2023-03-14T09:17:07;11.50;99.90
7002;DHT22;3541;53.230;10.518;2023-03-14T09:19:35;11.60;99.90
7002;DHT22;3541;53.230;10.518;2023-03-14T09:22:02;11.60;99.90
7002;DHT22;3541;53.230;10.518;2023-03-14T09:24:28;11.70;99.90
7002;DHT22;3541;53.230;10.518;2023-03-14T09:26:55;11.70;99.90
7002;DHT22;3541;53.230;10.518;2023-03-14T09:29:22;11.60;99.90
7002;DHT22;3541;53.230;10.518;2023-03-14T09:31:49;11.60;99.90
7002;DHT22;3541;53.230;10.518;2023-03-14T09:34:16;11.50;99.90
7002;DHT22;3541;53.230;10.518;2023-03-14T09:36:44;11.50;99.90
7002;DHT22;3541;53.230;10.518;2023-03-14T09:39:11;11.50;99.90
7002;DHT22;3541;53.230;10.518;2023-03-14T09:41:41;11.50;99.90
7002;DHT22;3541;53.230;10.518;2023-03-14T09:44:13;11.50;99.90
7002;DHT22;3541;53.230;10.518;2023-03-14T09:46:43;11.50;99.90
7002;DHT22;3541;53.230;10.518;2023-03-14T09:49:12;11.50;99.90
7002;DHT22;3541;53.230;10.518;2023-03-14T09:51:41;11.50;99.90
7002;DHT22;3541;53.230;10.518;2023-03-14T09:54:23;11.50;99.90
7002;DHT22;3541;53.230;10.518;2023-03-14T09:56:53;11.50;99.90
7002;DHT22;3541;53.230;10.518;2023-03-14T09:59:20;11.60;99.90
7002;DHT22;3541;53.230;10.518;2023-03-14T10:01:49;11.60;99.90
7002;DHT22;3541;53.230;10.518;2023-03-14T10:04:21;11.60;99.90
7002;DHT22;3541;53.230;10.518;2023-03-14T10:06:48;11.60;99.90
7002;DHT22;3541;53.230;10.518;2023-03-14T10:09:19;11.60;99.90
7002;DHT22;3541;53.230;10.518;2023-03-14T10:11:53;11.60;99.90
7002;DHT22;3541;53.230;10.518;2023-03-14T10:14:29;11.70;99.90
7002;DHT22;3541;53.230;10.518;2023-03-14T10:17:04;11.80;99.90
7002;DHT22;3541;53.230;10.518;2023-03-14T10:19:31;11.80;99.90
7002;DHT22;3541;53.230;10.518;2023-03-14T10:22:00;11.80;99.90
7002;DHT22;3541;53.230;10.518;2023-03-14T10:24:30;11.90;99.90
7002;DHT22;3541;53.230;10.518;2023-03-14T10:26:59;11.90;99.90
7002;DHT22;3541;53.230;10.518;2023-03-14T10:29:28;11.90;99.90
7002;DHT22;3541;53.230;10.518;2023-03-14T10:31:59;11.80;99.90
7002;DHT22;3541;53.230;10.518;2023-03-14T10:34:28;11.70;99.90
7002;DHT22;3541;53.230;10.518;2023-03-14T10:36:57;11.70;99.90
7002;DHT22;3541;53.230;10.518;2023-03-14T10:39:34;11.60;99.90
7002;DHT22;3541;53.230;10.518;2023-03-14T10:42:09;11.30;99.90
7002;DHT22;3541;53.230;10.518;2023-03-14T10:44:38;11.10;99.90
7002;DHT22;3541;53.230;10.518;2023-03-14T10:47:06;10.90;99.90
7002;DHT22;3541;53.230;10.518;2023-03-14T10:49:33;10.70;99.90
7002;DHT22;3541;53.230;10.518;2023-03-14T10:52:02;10.20;99.90
7002;DHT22;3541;53.230;10.518;2023-03-14T10:54:31;10.10;99.90
7002;DHT22;3541;53.230;10.518;2023-03-14T10:56:58;9.90;99.90
7002;DHT22;3541;53.230;10.518;2023-03-14T10:59:27;9.80;99.90
7002;DHT22;3541;53.230;10.518;2023-03-14T11:01:59;9.80;99.90
7002;DHT22;3541;53.230;10.518;2023-03-14T11:04:45;9.70;99.90
7002;DHT22;3541;53.230;10.518;2023-03-14T11:07:20;9.70;99.90
7002;DHT22;3541;53.230;10.518;2023-03-14T11:09:55;9.20;99.90
7002;DHT22;3541;53.230;10.518;2023-03-14T11:12:33;8.70;99.90
7002;DHT22;3541;53.230;10.518;2023-03-14T11:15:05;8.50;99.90
7002;DHT22;3541;53.230;10.518;2023-03-14T11:17:39;8.40;99.90
7002;DHT22;3541;53.230;10.518;2023-03-14T11:20:22;8.30;99.90
7002;DHT22;3541;53.230;10.518;2023-03-14T11:22:56;8.10;99.90
7002;DHT22;3541;53.230;10.518;2023-03-14T11:25:30;8.10;99.90
7002;DHT22;3541;53.230;10.518;2023-03-14T11:28:06;8.10;99.90
7002;DHT22;3541;53.230;10.518;2023-03-14T11:30:41;8.10;99.90
7002;DHT22;3541;53.230;10.518;2023-03-14T11:33:14;7.90;99.90
7002;DHT22;3541;53.230;10.518;2023-03-14T11:35:47;7.70;99.90
7002;DHT22;3541;53.230;10.518;2023-03-14T11:38:25;7.70;99.90
7002;DHT22;3541;53.230;10.518;2023-03-14T11:40:57;7.40;99.90
7002;DHT22;3541;53.230;10.518;2023-03-14T11:43:27;7.40;99.90
7002;DHT22;3541;53.230;10.518;2023-03-14T11:45:58;7.20;99.90
7002;DHT22;3541;53.230;10.518;2023-03-14T11:48:35;7.10;99.90
7002;DHT22;3541;53.230;10.518;2023-03-14T11:51:08;7.10;99.90
7002;DHT22;3541;53.230;10.518;2023-03-14T11:53:45;6.80;99.90
7002;DHT22;3541;53.230;10.518;2023-03-14T11:56:19;6.80;99.90
7002;DHT22;3541;53.230;10.518;2023-03-14T11:58:55;6.50;99.90
7002;DHT22;3541;53.230;10.518;2023-03-14T12:01:27;6.30;99.90
7002;DHT22;3541;53.230;10.518;2023-03-14T12:03:59;6.10;99.90
7002;DHT22;3541;53.230;10.518;2023-03-14T12:06:30;6.00;99.90
7002;DHT22;3541;53.230;10.518;2023-03-14T12:08:58;6.00;99.90
7002;DHT22;3541;53.230;10.518;2023-03-14T12:11:35;5.90;99.90
7002;DHT22;3541;53.230;10.518;2023-03-14T12:14:02;5.80;99.90
7002;DHT22;3541;53.230;10.518;2023-03-14T12:16:35;5.70;99.90
7002;DHT22;3541;53.230;10.518;2023-03-14T12:19:26;5.60;99.90
7002;DHT22;3541;53.230;10.518;2023-03-14T12:21:56;5.50;99.90
7002;DHT22;3541;53.230;10.518;2023-03-14T12:24:26;5.40;99.90
7002;DHT22;3541;53.230;10.518;2023-03-14T12:26:56;5.50;99.90
7002;DHT22;3541;53.230;10.518;2023-03-14T12:29:24;5.50;99.90
7002;DHT22;3541;53.230;10.518;2023-03-14T12:32:07;5.40;99.90
7002;DHT22;3541;53.230;10.518;2023-03-14T12:34:34;5.40;99.90
7002;DHT22;3541;53.230;10.518;2023-03-14T12:37:13;5.40;99.90
7002;DHT22;3541;53.230;10.518;2023-03-14T12:39:50;5.30;99.90
7002;DHT22;3541;53.230;10.518;2023-03-14T12:42:37;5.30;99.90
7002;DHT22;3541;53.230;10.518;2023-03-14T12:45:21;5.20;99.90
7002;DHT22;3541;53.230;10.518;2023-03-14T12:48:05;5.20;99.90
7002;DHT22;3541;53.230;10.518;2023-03-14T12:50:53;5.30;99.90
7002;DHT22;3541;53.230;10.518;2023-03-14T12:53:47;5.10;99.90
7002;DHT22;3541;53.230;10.518;2023-03-14T12:56:38;5.00;99.90
7002;DHT22;3541;53.230;10.518;2023-03-14T12:59:30;5.00;99.90
7002;DHT22;3541;53.230;10.518;2023-03-14T13:02:01;5.10;99.90
7002;DHT22;3541;53.230;10.518;2023-03-14T13:04:31;5.00;99.90
7002;DHT22;3541;53.230;10.518;2023-03-14T13:07:00;5.10;99.90
7002;DHT22;3541;53.230;10.518;2023-03-14T13:09:52;5.00;99.90
7002;DHT22;3541;53.230;10.518;2023-03-14T13:12:23;5.10;99.90
7002;DHT22;3541;53.230;10.518;2023-03-14T13:14:54;5.10;99.90
7002;DHT22;3541;53.230;10.518;2023-03-14T13:17:26;5.20;99.90
7002;DHT22;3541;53.230;10.518;2023-03-14T13:19:55;5.10;99.90
7002;DHT22;3541;53.230;10.518;2023-03-14T13:22:26;5.20;99.90
7002;DHT22;3541;53.230;10.518;2023-03-14T13:24:59;5.30;99.90
7002;DHT22;3541;53.230;10.518;2023-03-14T13:27:26;5.40;99.90
7002;DHT22;3541;53.230;10.518;2023-03-14T13:29:54;5.40;99.90
7002;DHT22;3541;53.230;10.518;2023-03-14T13:32:25;5.40;99.90
7002;DHT22;3541;53.230;10.518;2023-03-14T13:34:55;5.40;99.90
7002;DHT22;3541;53.230;10.518;2023-03-14T13:37:24;5.40;99.90
7002;DHT22;3541;53.230;10.518;2023-03-14T13:39:52;5.50;99.90
7002;DHT22;3541;53.230;10.518;2023-03-14T13:42:21;5.60;99.90
7002;DHT22;3541;53.230;10.518;2023-03-14T13:44:51;5.60;99.90
7002;DHT22;3541;53.230;10.518;2023-03-14T13:47:21;5.60;99.90
7002;DHT22;3541;53.230;10.518;2023-03-14T13:49:49;5.50;99.90
7002;DHT22;3541;53.230;10.518;2023-03-14T13:52:24;5.50;99.90
7002;DHT22;3541;53.230;10.518;2023-03-14T13:54:54;5.40;99.90
7002;DHT22;3541;53.230;10.518;2023-03-14T13:57:21;5.30;99.90
7002;DHT22;3541;53.230;10.518;2023-03-14T13:59:59;5.20;99.90
7002;DHT22;3541;53.230;10.518;2023-03-14T14:02:28;5.30;99.90
7002;DHT22;3541;53.230;10.518;2023-03-14T14:04:55;5.30;99.90
7002;DHT22;3541;53.230;10.518;2023-03-14T14:07:22;5.20;99.90
7002;DHT22;3541;53.230;10.518;2023-03-14T14:09:51;5.40;99.90
7002;DHT22;3541;53.230;10.518;2023-03-14T14:12:20;5.40;99.90
7002;DHT22;3541;53.230;10.518;2023-03-14T14:14:52;5.50;99.90
7002;DHT22;3541;53.230;10.518;2023-03-14T14:17:24;5.50;99.90
7002;DHT22;3541;53.230;10.518;2023-03-14T14:19:54;5.60;99.90
7002;DHT22;3541;53.230;10.518;2023-03-14T14:22:22;5.50;99.90
7002;DHT22;3541;53.230;10.518;2023-03-14T14:24:49;5.70;99.90
7002;DHT22;3541;53.230;10.518;2023-03-14T14:27:19;5.70;99.90
7002;DHT22;3541;53.230;10.518;2023-03-14T14:29:58;5.70;99.90
7002;DHT22;3541;53.230;10.518;2023-03-14T14:32:25;5.70;99.90
7002;DHT22;3541;53.230;10.518;2023-03-14T14:35:00;5.70;99.90
7002;DHT22;3541;53.230;10.518;2023-03-14T14:37:28;5.70;99.90
7002;DHT22;3541;53.230;10.518;2023-03-14T14:39:57;5.70;99.90
7002;DHT22;3541;53.230;10.518;2023-03-14T14:42:26;5.70;99.90
7002;DHT22;3541;53.230;10.518;2023-03-14T14:44:53;5.70;99.90
7002;DHT22;3541;53.230;10.518;2023-03-14T14:47:23;5.80;99.90
7002;DHT22;3541;53.230;10.518;2023-03-14T14:49:51;5.90;99.90
7002;DHT22;3541;53.230;10.518;2023-03-14T14:52:22;5.80;99.90
7002;DHT22;3541;53.230;10.518;2023-03-14T14:54:59;5.70;99.90
7002;DHT22;3541;53.230;10.518;2023-03-14T14:57:27;5.70;99.90
7002;DHT22;3541;53.230;10.518;2023-03-14T14:59:57;5.70;99.90
7002;DHT22;3541;53.230;10.518;2023-03-14T15:02:32;5.70;99.90
7002;DHT22;3541;53.230;10.518;2023-03-14T15:05:01;5.60;99.90
7002;DHT22;3541;53.230;10.518;2023-03-14T15:07:29;5.60;99.90
7002;DHT22;3541;53.230;10.518;2023-03-14T15:09:56;5.60;99.90
7002;DHT22;3541;53.230;10.518;2023-03-14T15:12:23;5.60;99.90
7002;DHT22;3541;53.230;10.518;2023-03-14T15:14:50;5.50;99.90
7002;DHT22;3541;53.230;10.518;2023-03-14T15:17:16;5.50;99.90
7002;DHT22;3541;53.230;10.518;2023-03-14T15:19:43;5.50;99.90
7002;DHT22;3541;53.230;10.518;2023-03-14T15:22:12;5.60;99.90
7002;DHT22;3541;53.230;10.518;2023-03-14T15:24:40;5.60;99.90
7002;DHT22;3541;53.230;10.518;2023-03-14T15:27:12;5.60;99.90
7002;DHT22;3541;53.230;10.518;2023-03-14T15:29:39;5.60;99.90
7002;DHT22;3541;53.230;10.518;2023-03-14T15:32:08;5.50;99.90
7002;DHT22;3541;53.230;10.518;2023-03-14T15:34:35;5.60;99.90
7002;DHT22;3541;53.230;10.518;2023-03-14T15:37:02;5.50;99.90
7002;DHT22;3541;53.230;10.518;2023-03-14T15:39:32;5.50;99.90
7002;DHT22;3541;53.230;10.518;2023-03-14T15:42:01;5.50;99.90
7002;DHT22;3541;53.230;10.518;2023-03-14T15:44:27;5.50;99.90
7002;DHT22;3541;53.230;10.518;2023-03-14T15:46:54;5.60;99.90
7002;DHT22;3541;53.230;10.518;2023-03-14T15:49:20;5.50;99.90
7002;DHT22;3541;53.230;10.518;2023-03-14T15:51:47;5.50;99.90
7002;DHT22;3541;53.230;10.518;2023-03-14T15:54:14;5.50;99.90
7002;DHT22;3541;53.230;10.518;2023-03-14T15:56:40;5.50;99.90
7002;DHT22;3541;53.230;10.518;2023-03-14T15:59:08;5.40;99.90
7002;DHT22;3541;53.230;10.518;2023-03-14T16:01:35;5.50;99.90
7002;DHT22;3541;53.230;10.518;2023-03-14T16:04:01;5.60;99.90